Time;durP1;ratioP1;P1;durP2;ratioP2;P2;SDS_P1;SDS_P2;PMS_P1;PMS_P2;Temp;Humidity;BMP_temperature;BMP_pressure;BME280_temperature;BME280_humidity;BME280_pressure;Samples;Min_cycle;Max_cycle;Signal;HPM_P1;HPM_P2
2022/07/17 00:02:14;;;;;;;0.70;0.60;;;24.40;46.90;;;;;;6277514;28;20123;-53
2022/07/17 00:05:16;;;;;;;0.90;0.70;;;24.40;47.10;;;;;;6286226;28;20117;-45
2022/07/17 00:08:18;;;;;;;0.60;0.60;;;24.40;47.20;;;;;;6271497;28;20145;-45
2022/07/17 00:11:20;;;;;;;0.60;0.60;;;24.40;47.40;;;;;;6281846;28;20840;-42
2022/07/17 00:14:21;;;;;;;0.70;0.60;;;24.30;47.40;;;;;;6281363;28;20204;-46
2022/07/17 00:17:23;;;;;;;0.70;0.50;;;24.30;47.50;;;;;;6281767;28;20078;-44
2022/07/17 00:20:26;;;;;;;0.70;0.52;;;24.30;47.60;;;;;;6280310;28;20086;-45
2022/07/17 00:23:28;;;;;;;0.88;0.60;;;24.30;47.70;;;;;;6281745;28;20044;-43
2022/07/17 00:26:29;;;;;;;1.15;0.70;;;24.30;47.80;;;;;;6279664;28;20044;-41
2022/07/17 00:29:31;;;;;;;0.60;0.60;;;24.30;47.90;;;;;;6284765;28;20576;-44
2022/07/17 00:32:34;;;;;;;0.90;0.75;;;24.30;48.10;;;;;;6289713;28;20887;-45
2022/07/17 00:35:36;;;;;;;0.40;0.40;;;24.30;48.30;;;;;;6274777;28;20054;-45
2022/07/17 00:38:37;;;;;;;1.00;0.70;;;24.30;48.40;;;;;;6288938;28;20082;-44
2022/07/17 00:41:39;;;;;;;0.60;0.50;;;24.30;48.50;;;;;;6283154;28;20039;-41
2022/07/17 00:44:42;;;;;;;0.75;0.60;;;24.20;48.50;;;;;;6282420;28;20047;-45
2022/07/17 00:47:50;;;;;;;0.60;0.43;;;24.30;48.60;;;;;;6249261;28;20118;-42
2022/07/17 00:50:53;;;;;;;0.55;0.45;;;24.30;48.80;;;;;;6286873;28;20051;-46
2022/07/17 00:53:58;;;;;;;0.40;0.40;;;24.10;48.70;;;;;;6284741;28;20130;-43
2022/07/17 00:57:01;;;;;;;0.65;0.50;;;24.10;48.90;;;;;;6263334;28;20047;-42
2022/07/17 01:00:06;;;;;;;0.65;0.50;;;24.10;49.00;;;;;;6267008;28;20055;-45
2022/07/17 01:03:15;;;;;;;0.60;0.60;;;24.30;49.20;;;;;;6286657;28;20044;-45
2022/07/17 01:06:17;;;;;;;0.70;0.50;;;24.50;49.30;;;;;;6290425;28;20058;-47
2022/07/17 01:09:18;;;;;;;0.50;0.50;;;24.20;49.20;;;;;;6294992;28;20070;-48
2022/07/17 01:12:21;;;;;;;0.80;0.70;;;24.10;49.20;;;;;;6293783;28;20104;-51
2022/07/17 01:15:23;;;;;;;0.55;0.40;;;24.20;49.40;;;;;;6295871;28;20147;-44
2022/07/17 01:18:25;;;;;;;0.55;0.50;;;24.10;49.40;;;;;;6295367;28;20039;-50
2022/07/17 01:21:38;;;;;;;0.50;0.40;;;24.00;49.40;;;;;;6282549;28;20848;-45
2022/07/17 01:24:40;;;;;;;0.60;0.50;;;24.20;49.70;;;;;;6283944;28;20143;-46
2022/07/17 01:27:42;;;;;;;0.63;0.50;;;23.80;49.40;;;;;;6282040;28;20056;-46
2022/07/17 01:30:46;;;;;;;0.55;0.50;;;24.10;49.60;;;;;;6284101;28;20050;-46
2022/07/17 01:33:49;;;;;;;0.50;0.50;;;24.10;49.80;;;;;;6263160;28;20052;-44
2022/07/17 01:36:51;;;;;;;0.50;0.50;;;24.00;49.70;;;;;;6287247;28;20155;-48
2022/07/17 01:39:52;;;;;;;0.40;0.40;;;24.00;49.70;;;;;;6279231;28;20052;-44
2022/07/17 01:42:54;;;;;;;0.40;0.40;;;24.00;49.70;;;;;;6283236;28;20430;-44
2022/07/17 01:45:56;;;;;;;0.63;0.50;;;24.10;49.80;;;;;;6272914;28;20539;-45
2022/07/17 01:48:57;;;;;;;0.50;0.47;;;24.50;50.10;;;;;;6280568;28;20668;-44
2022/07/17 01:51:59;;;;;;;0.60;0.60;;;24.10;49.80;;;;;;6278405;28;20150;-44
2022/07/17 01:55:01;;;;;;;0.73;0.73;;;24.00;49.90;;;;;;6280893;28;20903;-45
2022/07/17 01:58:06;;;;;;;0.40;0.40;;;23.90;49.90;;;;;;6277028;28;20138;-43
2022/07/17 02:01:07;;;;;;;0.50;0.50;;;24.10;50.00;;;;;;6278104;28;20113;-45
2022/07/17 02:04:09;;;;;;;0.43;0.40;;;24.10;50.10;;;;;;6276844;28;20032;-45
2022/07/17 02:07:12;;;;;;;0.75;0.50;;;23.90;50.00;;;;;;6278064;28;20721;-46
2022/07/17 02:10:14;;;;;;;0.50;0.40;;;24.00;50.10;;;;;;6243900;28;20245;-45
2022/07/17 02:13:15;;;;;;;0.40;0.40;;;24.00;50.10;;;;;;6248341;28;20075;-45
2022/07/17 02:16:17;;;;;;;0.50;0.40;;;24.00;50.10;;;;;;6266478;28;20044;-44
2022/07/17 02:19:19;;;;;;;0.55;0.50;;;24.00;50.10;;;;;;6270666;28;20386;-46
2022/07/17 02:22:21;;;;;;;0.63;0.50;;;24.00;50.10;;;;;;6271756;28;20319;-47
2022/07/17 02:25:26;;;;;;;0.82;0.60;;;23.90;50.00;;;;;;6274460;28;20122;-45
2022/07/17 02:28:30;;;;;;;0.50;0.47;;;24.00;50.10;;;;;;6268854;28;20272;-46
2022/07/17 02:31:32;;;;;;;0.63;0.35;;;23.90;50.10;;;;;;6271064;28;20394;-44
2022/07/17 02:34:37;;;;;;;0.55;0.40;;;24.00;50.10;;;;;;6253821;28;20182;-45
2022/07/17 02:37:41;;;;;;;0.70;0.55;;;23.90;50.00;;;;;;6270086;28;20039;-43
2022/07/17 02:40:43;;;;;;;0.60;0.60;;;23.90;50.00;;;;;;6252428;28;20102;-43
2022/07/17 02:43:45;;;;;;;0.75;0.60;;;23.90;50.00;;;;;;6272761;28;20346;-47
2022/07/17 02:46:47;;;;;;;0.82;0.50;;;23.80;50.00;;;;;;6269016;28;20520;-46
2022/07/17 02:49:48;;;;;;;0.60;0.55;;;23.90;50.00;;;;;;6276564;28;20044;-44
2022/07/17 02:52:50;;;;;;;0.57;0.40;;;23.80;49.90;;;;;;6271274;28;20351;-46
2022/07/17 02:55:52;;;;;;;0.47;0.40;;;23.90;50.00;;;;;;6273880;28;20123;-47
2022/07/17 02:58:54;;;;;;;0.60;0.40;;;23.90;49.90;;;;;;6275058;28;20044;-45
2022/07/17 03:01:55;;;;;;;0.88;0.77;;;23.90;49.80;;;;;;6272184;28;20158;-47
2022/07/17 03:04:57;;;;;;;0.55;0.55;;;23.90;49.80;;;;;;6247912;28;20265;-44
2022/07/17 03:07:59;;;;;;;0.40;0.40;;;23.90;49.80;;;;;;6272357;28;20157;-49
2022/07/17 03:11:01;;;;;;;0.70;0.50;;;23.80;50.20;;;;;;6273780;28;20048;-46
2022/07/17 03:14:02;;;;;;;0.80;0.40;;;23.90;49.80;;;;;;6283390;28;20757;-44
2022/07/17 03:17:04;;;;;;;0.50;0.50;;;23.90;49.60;;;;;;6281009;28;20132;-46
2022/07/17 03:20:07;;;;;;;0.80;0.40;;;23.80;49.50;;;;;;6280007;28;20457;-47
2022/07/17 03:23:09;;;;;;;0.57;0.40;;;23.90;49.50;;;;;;6279860;28;20039;-48
2022/07/17 03:26:14;;;;;;;0.65;0.65;;;23.80;49.30;;;;;;6281164;28;20355;-46
2022/07/17 03:29:17;;;;;;;0.43;0.32;;;23.90;49.30;;;;;;6267760;28;20215;-43
2022/07/17 03:32:18;;;;;;;0.60;0.40;;;23.90;49.30;;;;;;6253711;28;20134;-44
2022/07/17 03:35:23;;;;;;;0.55;0.30;;;23.90;49.20;;;;;;6269820;28;20123;-43
2022/07/17 03:38:25;;;;;;;0.70;0.50;;;23.80;49.10;;;;;;6270588;28;20189;-46
2022/07/17 03:41:27;;;;;;;0.43;0.38;;;23.80;49.00;;;;;;6267561;28;20823;-45
2022/07/17 03:44:29;;;;;;;0.68;0.40;;;23.90;49.10;;;;;;6271696;28;20050;-46
2022/07/17 03:47:30;;;;;;;0.40;0.40;;;24.00;49.10;;;;;;6253539;28;20152;-45
2022/07/17 03:50:32;;;;;;;0.47;0.40;;;23.90;49.00;;;;;;6280936;28;20370;-43
2022/07/17 03:53:34;;;;;;;0.47;0.40;;;23.80;48.80;;;;;;6281473;28;20067;-44
2022/07/17 03:56:36;;;;;;;0.50;0.40;;;23.90;48.80;;;;;;6281097;28;20432;-45
2022/07/17 03:59:38;;;;;;;0.60;0.50;;;23.80;48.70;;;;;;6281678;28;20775;-45
2022/07/17 04:02:39;;;;;;;0.38;0.30;;;23.80;48.70;;;;;;6285368;28;20615;-43
2022/07/17 04:05:49;;;;;;;0.40;0.30;;;23.80;48.60;;;;;;6277456;28;20276;-45
2022/07/17 04:08:52;;;;;;;0.40;0.40;;;23.90;48.50;;;;;;6251339;28;20051;-47
2022/07/17 04:11:54;;;;;;;0.50;0.50;;;23.80;48.40;;;;;;6269987;28;20490;-44
2022/07/17 04:14:55;;;;;;;0.55;0.40;;;23.90;48.40;;;;;;6274099;28;20084;-46
2022/07/17 04:17:57;;;;;;;0.52;0.43;;;23.90;48.30;;;;;;6267073;28;20269;-47
2022/07/17 04:21:00;;;;;;;0.47;0.40;;;23.90;48.10;;;;;;6264516;28;20579;-45
2022/07/17 04:24:02;;;;;;;0.50;0.50;;;23.80;48.00;;;;;;6264153;28;20044;-46
2022/07/17 04:27:04;;;;;;;0.57;0.38;;;23.90;47.90;;;;;;6267092;28;20068;-45
2022/07/17 04:30:06;;;;;;;0.40;0.40;;;23.80;47.80;;;;;;6247269;28;20488;-45
2022/07/17 04:33:09;;;;;;;0.30;0.30;;;23.80;47.70;;;;;;6268802;28;20052;-46
2022/07/17 04:36:16;;;;;;;0.40;0.40;;;23.90;47.60;;;;;;6248623;28;20053;-45
2022/07/17 04:39:18;;;;;;;0.40;0.38;;;23.90;47.50;;;;;;6269257;28;20333;-44
2022/07/17 04:42:20;;;;;;;0.52;0.30;;;23.80;47.30;;;;;;6267086;28;20057;-44
2022/07/17 04:45:21;;;;;;;0.85;0.50;;;23.90;47.30;;;;;;6265100;28;20052;-46
2022/07/17 04:48:23;;;;;;;0.30;0.30;;;23.90;47.20;;;;;;6265372;28;20674;-43
2022/07/17 04:51:24;;;;;;;0.22;0.22;;;24.00;47.20;;;;;;6267440;28;20253;-45
2022/07/17 04:54:27;;;;;;;0.50;0.40;;;24.00;47.10;;;;;;6266564;28;21027;-44
2022/07/17 04:57:29;;;;;;;0.50;0.50;;;23.90;46.90;;;;;;6262616;28;20084;-46
2022/07/17 05:00:30;;;;;;;0.45;0.40;;;24.00;46.80;;;;;;6265551;28;20408;-45
2022/07/17 05:03:32;;;;;;;0.47;0.40;;;24.00;46.70;;;;;;6265112;28;20049;-48
2022/07/17 05:06:34;;;;;;;0.55;0.40;;;24.00;46.60;;;;;;6261317;28;20075;-44
2022/07/17 05:09:36;;;;;;;0.30;0.30;;;24.00;46.60;;;;;;6265485;28;20046;-43
2022/07/17 05:12:37;;;;;;;0.30;0.30;;;24.10;46.50;;;;;;6240766;28;20389;-47
2022/07/17 05:15:39;;;;;;;0.30;0.20;;;24.10;46.50;;;;;;6264486;28;20980;-44
2022/07/17 05:18:42;;;;;;;0.30;0.30;;;24.00;46.70;;;;;;6264029;28;20583;-44
2022/07/17 05:21:43;;;;;;;0.50;0.40;;;24.00;46.30;;;;;;6263050;28;20238;-45
2022/07/17 05:24:45;;;;;;;0.20;0.20;;;24.10;46.30;;;;;;6265615;28;20229;-44
2022/07/17 05:27:47;;;;;;;0.40;0.40;;;24.00;46.20;;;;;;6262914;28;20704;-45
2022/07/17 05:30:48;;;;;;;0.30;0.30;;;24.20;46.20;;;;;;6275609;28;20054;-47
2022/07/17 05:33:50;;;;;;;0.50;0.40;;;24.00;46.10;;;;;;6275348;28;20597;-47
2022/07/17 05:36:58;;;;;;;0.50;0.43;;;24.10;46.10;;;;;;6273657;28;20044;-47
2022/07/17 05:40:00;;;;;;;0.50;0.40;;;24.10;46.00;;;;;;6276930;28;20046;-48
2022/07/17 05:43:02;;;;;;;0.30;0.30;;;24.10;46.00;;;;;;6276002;28;20375;-45
2022/07/17 05:46:03;;;;;;;0.80;0.38;;;24.20;46.00;;;;;;6270916;28;20074;-46
2022/07/17 05:49:05;;;;;;;0.50;0.38;;;24.20;45.90;;;;;;6268386;28;20120;-47
2022/07/17 05:52:06;;;;;;;0.50;0.40;;;24.20;45.90;;;;;;6260427;28;20154;-43
2022/07/17 05:55:09;;;;;;;0.45;0.40;;;24.20;45.90;;;;;;6265353;28;20085;-48
2022/07/17 05:58:14;;;;;;;0.30;0.30;;;24.20;45.80;;;;;;6263613;28;20074;-45
2022/07/17 06:01:16;;;;;;;0.40;0.25;;;24.10;45.70;;;;;;6245933;28;20770;-44
2022/07/17 06:04:17;;;;;;;0.30;0.30;;;24.20;45.80;;;;;;6266375;28;20771;-44
2022/07/17 06:07:19;;;;;;;0.55;0.50;;;24.20;45.70;;;;;;6262653;28;20948;-45
2022/07/17 06:10:21;;;;;;;0.40;0.40;;;24.30;45.70;;;;;;6273464;28;20173;-45
2022/07/17 06:13:23;;;;;;;0.40;0.30;;;24.20;45.70;;;;;;6275570;28;20184;-46
2022/07/17 06:16:24;;;;;;;0.20;0.20;;;24.20;45.70;;;;;;6273614;28;20036;-44
2022/07/17 06:19:26;;;;;;;0.55;0.35;;;24.30;45.70;;;;;;6275086;28;20052;-45
2022/07/17 06:22:28;;;;;;;0.40;0.35;;;24.30;45.70;;;;;;6254509;28;20738;-43
2022/07/17 06:25:30;;;;;;;0.50;0.40;;;24.30;45.70;;;;;;6267399;28;20494;-46
2022/07/17 06:28:31;;;;;;;0.52;0.40;;;24.40;45.70;;;;;;6266659;28;20126;-46
2022/07/17 06:31:33;;;;;;;0.30;0.30;;;24.30;45.70;;;;;;6262324;28;20324;-43
2022/07/17 06:34:35;;;;;;;0.47;0.38;;;24.30;45.70;;;;;;6267143;28;20812;-45
2022/07/17 06:37:37;;;;;;;0.25;0.25;;;24.30;45.70;;;;;;6264792;28;20262;-45
2022/07/17 06:40:40;;;;;;;0.50;0.50;;;24.30;45.70;;;;;;6247256;28;20078;-45
2022/07/17 06:43:41;;;;;;;0.43;0.40;;;24.30;45.70;;;;;;6263145;28;20048;-45
2022/07/17 06:46:42;;;;;;;0.30;0.30;;;24.30;45.80;;;;;;6264244;28;20079;-44
2022/07/17 06:49:44;;;;;;;0.63;0.32;;;24.30;45.90;;;;;;6270578;28;20048;-46
2022/07/17 06:52:46;;;;;;;0.68;0.40;;;24.30;45.90;;;;;;6273787;28;20630;-44
2022/07/17 06:55:48;;;;;;;0.40;0.30;;;24.10;45.80;;;;;;6273590;28;20120;-44
2022/07/17 06:58:50;;;;;;;0.35;0.35;;;24.20;45.90;;;;;;6276304;28;20469;-47
2022/07/17 07:01:52;;;;;;;0.25;0.25;;;24.20;46.00;;;;;;6258529;28;20186;-44
2022/07/17 07:04:53;;;;;;;0.30;0.20;;;24.20;46.10;;;;;;6274298;28;20146;-44
2022/07/17 07:07:58;;;;;;;1.35;0.30;;;24.20;46.10;;;;;;6272863;28;21052;-46
2022/07/17 07:11:00;;;;;;;0.40;0.20;;;24.20;46.10;;;;;;6252907;28;20450;-44
2022/07/17 07:14:02;;;;;;;0.50;0.38;;;24.30;46.20;;;;;;6276965;28;20352;-47
2022/07/17 07:17:05;;;;;;;0.35;0.30;;;24.30;46.20;;;;;;6269223;28;20577;-44
2022/07/17 07:20:08;;;;;;;0.57;0.30;;;24.30;46.30;;;;;;6266752;28;20607;-46
2022/07/17 07:23:09;;;;;;;0.40;0.30;;;24.20;46.20;;;;;;6246212;28;20665;-45
2022/07/17 07:26:12;;;;;;;0.15;0.13;;;24.20;46.20;;;;;;6261929;28;20044;-45
2022/07/17 07:29:13;;;;;;;0.63;0.40;;;24.30;46.30;;;;;;6257624;28;20311;-46
2022/07/17 07:32:18;;;;;;;0.25;0.25;;;24.20;46.60;;;;;;6261759;28;20040;-47
2022/07/17 07:35:20;;;;;;;0.30;0.30;;;24.20;46.20;;;;;;6261787;28;20031;-47
2022/07/17 07:38:25;;;;;;;0.70;0.45;;;24.20;46.20;;;;;;6259863;28;20128;-45
2022/07/17 07:41:27;;;;;;;0.40;0.30;;;24.30;46.30;;;;;;6254710;28;20504;-45
2022/07/17 07:44:29;;;;;;;0.30;0.30;;;24.20;46.30;;;;;;6253224;28;20592;-42
2022/07/17 07:47:39;;;;;;;0.30;0.30;;;24.20;46.30;;;;;;6257050;28;21202;-47
2022/07/17 07:50:43;;;;;;;0.30;0.28;;;24.20;46.30;;;;;;6237891;28;20048;-50
2022/07/17 07:53:44;;;;;;;0.30;0.30;;;24.30;46.50;;;;;;6215963;28;20142;-44
2022/07/17 07:56:46;;;;;;;0.30;0.30;;;24.30;46.40;;;;;;6262154;28;20472;-47
2022/07/17 07:59:48;;;;;;;0.30;0.30;;;24.20;46.40;;;;;;6256145;28;20040;-46
2022/07/17 08:02:49;;;;;;;0.40;0.35;;;24.30;46.50;;;;;;6250288;28;20375;-45
2022/07/17 08:05:52;;;;;;;0.60;0.30;;;24.40;46.50;;;;;;6259814;28;20852;-48
2022/07/17 08:08:57;;;;;;;0.28;0.22;;;24.30;46.50;;;;;;6260524;28;20211;-48
2022/07/17 08:11:59;;;;;;;0.43;0.40;;;24.30;46.50;;;;;;6256051;28;20067;-44
2022/07/17 08:15:11;;;;;;;0.30;0.30;;;24.30;46.50;;;;;;6258765;28;20707;-44
2022/07/17 08:18:13;;;;;;;0.50;0.50;;;24.30;46.50;;;;;;6262138;28;20324;-47
2022/07/17 08:21:14;;;;;;;0.30;0.30;;;24.20;46.50;;;;;;6256742;28;20103;-43
2022/07/17 08:24:19;;;;;;;0.40;0.40;;;24.30;46.50;;;;;;6260917;28;20366;-45
2022/07/17 08:27:22;;;;;;;0.82;0.38;;;24.30;46.60;;;;;;6261767;28;20037;-45
2022/07/17 08:30:23;;;;;;;0.40;0.40;;;24.30;47.20;;;;;;6257607;28;20075;-45
2022/07/17 08:33:25;;;;;;;0.30;0.30;;;24.40;46.60;;;;;;6258882;28;20077;-47
2022/07/17 08:36:26;;;;;;;0.30;0.30;;;24.30;46.60;;;;;;6261087;28;20613;-44
2022/07/17 08:39:32;;;;;;;0.30;0.30;;;24.30;46.60;;;;;;6261415;28;20280;-47
2022/07/17 08:42:42;;;;;;;0.43;0.40;;;24.40;46.70;;;;;;6260472;28;20498;-44
2022/07/17 08:45:45;;;;;;;0.50;0.30;;;24.20;46.60;;;;;;6260308;28;20082;-47
2022/07/17 08:48:52;;;;;;;0.50;0.38;;;24.40;46.60;;;;;;6245691;28;20142;-45
2022/07/17 08:51:55;;;;;;;0.32;0.32;;;24.40;46.70;;;;;;6244473;28;20365;-45
2022/07/17 08:54:58;;;;;;;0.30;0.28;;;24.50;46.70;;;;;;6253014;28;20091;-48
2022/07/17 08:58:00;;;;;;;0.20;0.20;;;24.40;46.60;;;;;;6254625;28;20348;-43
2022/07/17 09:01:03;;;;;;;0.38;0.38;;;24.40;46.60;;;;;;6259836;28;20474;-49
2022/07/17 09:04:06;;;;;;;0.75;0.40;;;24.30;46.50;;;;;;6231356;28;20051;-44
2022/07/17 09:07:08;;;;;;;0.40;0.40;;;24.50;46.60;;;;;;6235751;28;21405;-42
2022/07/17 09:10:10;;;;;;;0.60;0.60;;;24.60;46.60;;;;;;6256151;28;20146;-45
2022/07/17 09:13:17;;;;;;;0.40;0.38;;;24.50;46.50;;;;;;6253357;28;20317;-43
2022/07/17 09:16:19;;;;;;;0.38;0.38;;;24.50;46.50;;;;;;6260787;28;20043;-50
2022/07/17 09:19:29;;;;;;;0.60;0.40;;;24.50;46.40;;;;;;6258332;28;20480;-44
2022/07/17 09:22:31;;;;;;;0.47;0.40;;;24.50;46.40;;;;;;6243343;28;20531;-44
2022/07/17 09:25:35;;;;;;;0.50;0.43;;;24.50;46.30;;;;;;6257982;28;20256;-44
2022/07/17 09:28:45;;;;;;;0.73;0.40;;;24.50;46.30;;;;;;6262709;28;20678;-42
2022/07/17 09:31:52;;;;;;;0.55;0.30;;;24.50;46.20;;;;;;6268887;28;20043;-49
2022/07/17 09:34:55;;;;;;;0.32;0.30;;;24.50;46.10;;;;;;6260402;28;20047;-46
2022/07/17 09:37:57;;;;;;;0.60;0.30;;;24.50;46.10;;;;;;6240630;28;20043;-45
2022/07/17 09:41:12;;;;;;;0.47;0.40;;;24.50;46.10;;;;;;6261355;28;20671;-47
2022/07/17 09:44:16;;;;;;;0.28;0.28;;;24.50;46.00;;;;;;6243249;28;20504;-46
2022/07/17 09:47:18;;;;;;;0.73;0.40;;;24.50;46.10;;;;;;6261335;28;20150;-44
2022/07/17 09:50:20;;;;;;;0.40;0.40;;;24.50;46.00;;;;;;6262599;28;20503;-44
2022/07/17 09:53:22;;;;;;;0.68;0.45;;;24.50;46.00;;;;;;6262336;28;20074;-43
2022/07/17 09:56:25;;;;;;;0.28;0.28;;;24.70;46.10;;;;;;6273299;28;20350;-44
2022/07/17 09:59:34;;;;;;;0.40;0.40;;;24.60;46.00;;;;;;6246232;28;20233;-43
2022/07/17 10:02:35;;;;;;;0.52;0.30;;;24.50;45.90;;;;;;6255623;28;20127;-48
2022/07/17 10:05:37;;;;;;;0.50;0.40;;;24.60;46.00;;;;;;6253156;28;20441;-49
2022/07/17 10:08:46;;;;;;;0.63;0.50;;;24.50;45.90;;;;;;6261803;28;20397;-43
2022/07/17 10:11:49;;;;;;;0.30;0.30;;;24.60;45.90;;;;;;6265848;28;20240;-46
2022/07/17 10:14:51;;;;;;;0.38;0.28;;;24.60;45.90;;;;;;6264778;28;20884;-43
2022/07/17 10:18:04;;;;;;;0.30;0.30;;;24.60;45.90;;;;;;6258981;28;20101;-46
2022/07/17 10:21:12;;;;;;;0.20;0.20;;;24.50;45.70;;;;;;6273304;28;20443;-46
2022/07/17 10:24:14;;;;;;;0.28;0.20;;;24.60;45.70;;;;;;6244622;28;20058;-46
2022/07/17 10:27:20;;;;;;;0.20;0.20;;;24.50;45.60;;;;;;6267809;28;20214;-44
2022/07/17 10:30:26;;;;;;;0.28;0.20;;;24.50;45.50;;;;;;6266755;28;20238;-43
2022/07/17 10:33:27;;;;;;;0.57;0.30;;;24.40;45.30;;;;;;6246315;28;20128;-47
2022/07/17 10:36:33;;;;;;;0.93;0.35;;;24.50;45.30;;;;;;6268956;28;20405;-44
2022/07/17 10:39:36;;;;;;;0.20;0.20;;;24.60;45.20;;;;;;6268984;27;20274;-44
2022/07/17 10:42:56;;;;;;;0.35;0.35;;;24.60;45.10;;;;;;6264864;28;20909;-46
2022/07/17 10:45:58;;;;;;;0.20;0.20;;;24.50;45.00;;;;;;6245124;28;20527;-46
2022/07/17 10:49:03;;;;;;;0.20;0.20;;;24.50;44.90;;;;;;6262588;28;20118;-45
2022/07/17 10:52:05;;;;;;;0.30;0.30;;;24.50;44.80;;;;;;6267531;28;20240;-43
2022/07/17 10:55:18;;;;;;;0.30;0.30;;;24.60;44.80;;;;;;6261360;28;21053;-48
2022/07/17 10:58:23;;;;;;;0.30;0.28;;;24.60;44.70;;;;;;6243986;28;20048;-43
2022/07/17 11:01:25;;;;;;;0.30;0.30;;;24.60;44.60;;;;;;6246395;28;20032;-44
2022/07/17 11:04:36;;;;;;;0.30;0.20;;;24.40;44.50;;;;;;6267686;28;20075;-44
2022/07/17 11:07:58;;;;;;;0.40;0.40;;;24.60;44.50;;;;;;6259949;28;20349;-44
2022/07/17 11:10:59;;;;;;;0.50;0.30;;;24.50;44.30;;;;;;6240168;28;20426;-46
2022/07/17 11:14:12;;;;;;;0.30;0.20;;;24.60;44.40;;;;;;6267470;28;20275;-46
2022/07/17 11:17:19;;;;;;;0.30;0.30;;;24.60;44.30;;;;;;6260413;28;20048;-46
2022/07/17 11:20:21;;;;;;;0.70;0.30;;;24.60;44.30;;;;;;6263216;28;20306;-45
2022/07/17 11:23:25;;;;;;;0.20;0.17;;;24.60;44.20;;;;;;6265825;28;20070;-43
2022/07/17 11:26:27;;;;;;;0.20;0.20;;;24.50;44.10;;;;;;6229129;28;20989;-43
2022/07/17 11:29:29;;;;;;;0.50;0.30;;;24.70;44.20;;;;;;6264408;28;20036;-46
2022/07/17 11:32:33;;;;;;;0.30;0.30;;;24.20;43.90;;;;;;6263428;28;20276;-44
2022/07/17 11:35:35;;;;;;;0.17;0.10;;;24.70;44.20;;;;;;6243311;28;20368;-46
2022/07/17 11:38:44;;;;;;;0.50;0.30;;;24.60;44.10;;;;;;6262693;28;20484;-47
2022/07/17 11:41:50;;;;;;;0.43;0.40;;;24.60;44.10;;;;;;6266634;28;20638;-45
2022/07/17 11:44:55;;;;;;;0.38;0.20;;;24.70;44.10;;;;;;6258826;28;20391;-42
2022/07/17 11:48:01;;;;;;;0.30;0.22;;;24.70;44.10;;;;;;6239801;28;20047;-45
2022/07/17 11:51:03;;;;;;;0.30;0.30;;;24.70;44.10;;;;;;6262249;28;20048;-46
2022/07/17 11:54:07;;;;;;;0.25;0.25;;;24.70;44.10;;;;;;6264286;28;20277;-43
2022/07/17 11:57:09;;;;;;;0.45;0.40;;;24.70;44.10;;;;;;6262759;28;20381;-47
2022/07/17 12:00:11;;;;;;;0.30;0.20;;;24.70;44.10;;;;;;6255711;28;20960;-43
2022/07/17 12:03:13;;;;;;;0.40;0.20;;;24.60;44.00;;;;;;6252576;28;20696;-44
2022/07/17 12:06:24;;;;;;;0.50;0.38;;;24.70;44.00;;;;;;6261267;28;20956;-44
2022/07/17 12:09:27;;;;;;;0.38;0.30;;;24.70;43.90;;;;;;6262538;28;21060;-46
2022/07/17 12:12:28;;;;;;;0.20;0.20;;;24.70;43.90;;;;;;6263511;28;20983;-46
2022/07/17 12:15:36;;;;;;;0.20;0.20;;;24.60;43.80;;;;;;6263518;28;20040;-46
2022/07/17 12:18:38;;;;;;;0.43;0.30;;;24.70;43.80;;;;;;6260814;28;20049;-46
2022/07/17 12:21:50;;;;;;;0.30;0.30;;;24.70;43.70;;;;;;6264078;28;20356;-47
2022/07/17 12:24:51;;;;;;;0.30;0.22;;;24.70;43.60;;;;;;6247988;28;20059;-48
2022/07/17 12:27:53;;;;;;;0.40;0.40;;;24.70;43.60;;;;;;6261935;28;21487;-44
2022/07/17 12:30:55;;;;;;;0.25;0.22;;;24.70;43.50;;;;;;6237938;28;20082;-43
2022/07/17 12:33:57;;;;;;;0.30;0.28;;;24.70;43.40;;;;;;6260786;28;20359;-54
2022/07/17 12:36:58;;;;;;;0.40;0.40;;;24.70;43.40;;;;;;6242960;28;20039;-46
2022/07/17 12:40:00;;;;;;;0.40;0.30;;;24.70;43.30;;;;;;6262032;28;20149;-43
2022/07/17 12:43:02;;;;;;;0.32;0.30;;;24.40;43.10;;;;;;6267744;28;20306;-48
2022/07/17 12:46:04;;;;;;;0.25;0.25;;;24.70;43.20;;;;;;6267988;28;20207;-46
2022/07/17 12:49:17;;;;;;;0.30;0.20;;;24.70;43.20;;;;;;6253956;28;20052;-43
2022/07/17 12:52:19;;;;;;;0.30;0.20;;;24.70;43.20;;;;;;6255796;28;20055;-45
2022/07/17 12:55:20;;;;;;;0.20;0.20;;;24.70;43.20;;;;;;6261318;28;20059;-46
2022/07/17 12:58:22;;;;;;;0.25;0.20;;;24.70;43.20;;;;;;6257982;28;20871;-46
2022/07/17 13:01:23;;;;;;;0.20;0.20;;;24.80;43.20;;;;;;6259412;28;20186;-46
2022/07/17 13:04:27;;;;;;;0.20;0.20;;;24.70;43.20;;;;;;6262208;28;20580;-44
2022/07/17 13:07:28;;;;;;;0.20;0.20;;;24.70;43.20;;;;;;6254664;28;20206;-47
2022/07/17 13:10:31;;;;;;;0.30;0.30;;;24.70;43.10;;;;;;6252858;28;20136;-45
2022/07/17 13:13:32;;;;;;;0.30;0.20;;;24.80;43.20;;;;;;6255478;28;20688;-45
2022/07/17 13:16:41;;;;;;;0.30;0.25;;;24.80;43.10;;;;;;6258588;28;20503;-44
2022/07/17 13:19:43;;;;;;;0.30;0.30;;;24.80;43.10;;;;;;6256308;28;20840;-44
2022/07/17 13:22:45;;;;;;;0.40;0.30;;;24.70;43.60;;;;;;6258019;28;20319;-46
2022/07/17 13:25:46;;;;;;;0.40;0.20;;;24.80;43.00;;;;;;6257610;28;20082;-44
2022/07/17 13:28:48;;;;;;;0.20;0.20;;;24.80;43.00;;;;;;6262241;28;20443;-45
2022/07/17 13:31:49;;;;;;;0.20;0.20;;;24.80;43.00;;;;;;6270074;28;20516;-48
2022/07/17 13:34:58;;;;;;;0.30;0.30;;;24.80;42.90;;;;;;6270819;28;20264;-47
2022/07/17 13:38:01;;;;;;;0.38;0.30;;;24.80;42.80;;;;;;6257912;28;20149;-46
2022/07/17 13:41:03;;;;;;;0.43;0.30;;;24.70;42.80;;;;;;6268269;28;20361;-44
2022/07/17 13:44:05;;;;;;;0.30;0.20;;;24.80;42.80;;;;;;6264354;28;20047;-43
2022/07/17 13:47:10;;;;;;;0.20;0.20;;;24.80;42.70;;;;;;6265551;28;20470;-46
2022/07/17 13:50:13;;;;;;;0.40;0.30;;;24.80;42.70;;;;;;6244565;28;20048;-43
2022/07/17 13:53:16;;;;;;;0.30;0.20;;;24.80;42.70;;;;;;6265157;28;20044;-45
2022/07/17 13:56:19;;;;;;;0.50;0.28;;;24.80;42.70;;;;;;6261607;28;20040;-44
2022/07/17 13:59:21;;;;;;;0.22;0.22;;;24.80;42.70;;;;;;6258494;28;20070;-43
2022/07/17 14:02:22;;;;;;;0.40;0.30;;;24.90;42.70;;;;;;6257320;28;20124;-45
2022/07/17 14:05:24;;;;;;;0.28;0.20;;;24.80;42.60;;;;;;6256388;28;20092;-44
2022/07/17 14:08:26;;;;;;;0.45;0.30;;;24.80;42.60;;;;;;6262626;28;20044;-44
2022/07/17 14:11:28;;;;;;;0.20;0.20;;;24.90;42.70;;;;;;6251898;28;20167;-46
2022/07/17 14:14:29;;;;;;;0.20;0.20;;;24.90;42.70;;;;;;6254585;28;20061;-45
2022/07/17 14:17:34;;;;;;;0.40;0.30;;;24.80;42.50;;;;;;6268165;28;20133;-49
2022/07/17 14:20:36;;;;;;;0.20;0.20;;;24.90;42.50;;;;;;6270298;28;20301;-45
2022/07/17 14:23:38;;;;;;;0.20;0.10;;;24.80;42.40;;;;;;6267726;28;20712;-45
2022/07/17 14:26:42;;;;;;;0.20;0.20;;;24.90;42.40;;;;;;6273275;28;20921;-46
2022/07/17 14:29:43;;;;;;;0.38;0.32;;;24.80;42.20;;;;;;6263054;28;20641;-44
2022/07/17 14:32:45;;;;;;;0.30;0.20;;;24.90;42.30;;;;;;6256491;28;20126;-43
2022/07/17 14:35:47;;;;;;;0.50;0.30;;;24.80;42.20;;;;;;6260023;28;20148;-45
2022/07/17 14:38:49;;;;;;;0.50;0.28;;;25.00;42.20;;;;;;6267559;28;20054;-45
2022/07/17 14:41:51;;;;;;;0.30;0.30;;;24.90;42.10;;;;;;6257287;28;20582;-44
2022/07/17 14:44:53;;;;;;;0.47;0.47;;;24.80;41.90;;;;;;6259733;28;20044;-44
2022/07/17 14:47:54;;;;;;;0.50;0.43;;;24.90;41.90;;;;;;6268476;28;20214;-44
2022/07/17 14:50:57;;;;;;;0.25;0.25;;;24.90;41.90;;;;;;6269981;28;20046;-44
2022/07/17 14:53:58;;;;;;;0.30;0.20;;;24.90;41.80;;;;;;6263702;28;20044;-47
2022/07/17 14:57:00;;;;;;;0.50;0.30;;;24.90;41.80;;;;;;6263886;28;20442;-42
2022/07/17 15:00:03;;;;;;;0.10;0.10;;;24.90;41.70;;;;;;6261464;28;20150;-43
2022/07/17 15:03:05;;;;;;;0.30;0.25;;;24.90;41.60;;;;;;6234348;28;20784;-46
2022/07/17 15:06:07;;;;;;;0.20;0.20;;;24.90;41.50;;;;;;6261541;28;20187;-45
2022/07/17 15:09:10;;;;;;;0.22;0.20;;;24.90;41.50;;;;;;6262942;28;20147;-44
2022/07/17 15:12:11;;;;;;;0.80;0.32;;;24.50;41.20;;;;;;6255541;28;20043;-42
2022/07/17 15:15:14;;;;;;;0.38;0.32;;;24.90;41.40;;;;;;6269601;28;20047;-46
2022/07/17 15:18:16;;;;;;;0.35;0.32;;;25.00;41.50;;;;;;6245745;28;20093;-44
2022/07/17 15:21:21;;;;;;;0.20;0.20;;;24.90;41.50;;;;;;6259115;28;20306;-42
2022/07/17 15:24:43;;;;;;;0.38;0.30;;;24.90;42.10;;;;;;6248300;28;20169;-46
2022/07/17 15:27:44;;;;;;;0.40;0.30;;;24.90;41.40;;;;;;6255594;28;20474;-46
2022/07/17 15:30:46;;;;;;;0.30;0.30;;;25.00;41.30;;;;;;6253386;28;20051;-46
2022/07/17 15:33:47;;;;;;;0.30;0.30;;;25.00;41.20;;;;;;6256694;28;20043;-44
2022/07/17 15:36:49;;;;;;;0.32;0.30;;;25.00;41.00;;;;;;6258103;28;20395;-43
2022/07/17 15:39:51;;;;;;;0.22;0.22;;;25.00;40.90;;;;;;6262956;28;20637;-44
2022/07/17 15:42:53;;;;;;;0.45;0.45;;;25.00;40.90;;;;;;6239345;28;21035;-43
2022/07/17 15:45:55;;;;;;;0.28;0.28;;;25.00;40.90;;;;;;6251897;28;20453;-44
2022/07/17 15:48:58;;;;;;;0.30;0.30;;;25.00;40.80;;;;;;6262940;28;20171;-47
2022/07/17 15:52:00;;;;;;;0.47;0.30;;;25.10;40.90;;;;;;6256600;28;20043;-43
2022/07/17 15:55:02;;;;;;;0.40;0.35;;;25.10;40.80;;;;;;6256840;28;20593;-43